sensor_id;sensor_type;location;lat;lon;timestamp;pressure;altitude;pressure_sealevel;temperature;humidity
68366;BME280;55283;51.466;5.478;2022-07-31T00:00:49;101580.16;;;27.05;33.76
68366;BME280;55283;51.466;5.478;2022-07-31T00:03:16;101583.00;;;27.05;33.57
68366;BME280;55283;51.466;5.478;2022-07-31T00:05:42;101580.94;;;27.05;33.80
68366;BME280;55283;51.466;5.478;2022-07-31T00:08:07;101581.44;;;27.04;33.97
68366;BME280;55283;51.466;5.478;2022-07-31T00:10:33;101571.38;;;27.03;33.99
68366;BME280;55283;51.466;5.478;2022-07-31T00:12:58;101573.72;;;27.04;33.70
68366;BME280;55283;51.466;5.478;2022-07-31T00:15:24;101575.78;;;27.04;33.77
68366;BME280;55283;51.466;5.478;2022-07-31T00:17:49;101583.00;;;27.05;33.81
68366;BME280;55283;51.466;5.478;2022-07-31T00:20:15;101569.78;;;27.02;33.95
68366;BME280;55283;51.466;5.478;2022-07-31T00:22:43;101569.00;;;27.01;34.24
68366;BME280;55283;51.466;5.478;2022-07-31T00:25:10;101570.56;;;27.02;33.95
68366;BME280;55283;51.466;5.478;2022-07-31T00:27:36;101555.34;;;27.00;34.08
68366;BME280;55283;51.466;5.478;2022-07-31T00:30:02;101540.41;;;26.90;33.96
68366;BME280;55283;51.466;5.478;2022-07-31T00:32:28;101556.28;;;26.97;34.09
68366;BME280;55283;51.466;5.478;2022-07-31T00:34:53;101565.84;;;26.99;34.02
68366;BME280;55283;51.466;5.478;2022-07-31T00:37:19;101561.00;;;27.00;34.28
68366;BME280;55283;51.466;5.478;2022-07-31T00:39:44;101563.53;;;26.98;34.19
68366;BME280;55283;51.466;5.478;2022-07-31T00:42:21;101565.25;;;26.95;34.02
68366;BME280;55283;51.466;5.478;2022-07-31T00:44:50;101571.69;;;26.96;34.30
68366;BME280;55283;51.466;5.478;2022-07-31T00:47:17;101577.66;;;26.98;34.08
68366;BME280;55283;51.466;5.478;2022-07-31T00:49:43;101573.25;;;26.97;34.28
68366;BME280;55283;51.466;5.478;2022-07-31T00:52:09;101570.13;;;26.95;34.21
68366;BME280;55283;51.466;5.478;2022-07-31T00:54:35;101569.63;;;26.96;34.26
68366;BME280;55283;51.466;5.478;2022-07-31T00:57:01;101568.84;;;26.96;34.08
68366;BME280;55283;51.466;5.478;2022-07-31T00:59:28;101571.69;;;26.96;33.93
68366;BME280;55283;51.466;5.478;2022-07-31T01:01:54;101566.03;;;26.96;33.96
68366;BME280;55283;51.466;5.478;2022-07-31T01:04:23;101565.09;;;26.99;34.05
68366;BME280;55283;51.466;5.478;2022-07-31T01:06:53;101561.94;;;26.97;33.85
68366;BME280;55283;51.466;5.478;2022-07-31T01:09:18;101558.31;;;26.96;34.21
68366;BME280;55283;51.466;5.478;2022-07-31T01:11:49;101533.97;;;26.80;34.00
68366;BME280;55283;51.466;5.478;2022-07-31T01:14:20;101563.19;;;26.96;34.15
68366;BME280;55283;51.466;5.478;2022-07-31T01:16:50;101568.84;;;26.96;33.72
68366;BME280;55283;51.466;5.478;2022-07-31T01:19:23;101570.91;;;26.95;34.06
68366;BME280;55283;51.466;5.478;2022-07-31T01:22:10;101560.38;;;26.96;34.12
68366;BME280;55283;51.466;5.478;2022-07-31T01:29:55;101568.84;;;26.96;33.98
68366;BME280;55283;51.466;5.478;2022-07-31T01:32:37;101552.97;;;26.89;33.98
68366;BME280;55283;51.466;5.478;2022-07-31T01:35:19;101556.13;;;26.91;33.87
68366;BME280;55283;51.466;5.478;2022-07-31T01:37:51;101553.59;;;26.93;33.99
68366;BME280;55283;51.466;5.478;2022-07-31T01:40:41;101555.03;;;26.89;33.79
68366;BME280;55283;51.466;5.478;2022-07-31T01:43:17;101541.03;;;26.85;33.92
68366;BME280;55283;51.466;5.478;2022-07-31T01:45:46;101549.22;;;26.92;33.71
68366;BME280;55283;51.466;5.478;2022-07-31T01:48:14;101552.50;;;26.91;33.77
68366;BME280;55283;51.466;5.478;2022-07-31T01:50:44;101551.25;;;26.92;34.04
68366;BME280;55283;51.466;5.478;2022-07-31T01:53:16;101553.44;;;26.88;33.91
68366;BME280;55283;51.466;5.478;2022-07-31T01:55:43;101556.13;;;26.91;33.71
68366;BME280;55283;51.466;5.478;2022-07-31T01:58:10;101555.81;;;26.89;33.76
68366;BME280;55283;51.466;5.478;2022-07-31T02:00:37;101556.59;;;26.90;33.80
68366;BME280;55283;51.466;5.478;2022-07-31T02:03:04;101546.53;;;26.89;33.79
68366;BME280;55283;51.466;5.478;2022-07-31T02:05:33;101532.06;;;26.77;33.79
68366;BME280;55283;51.466;5.478;2022-07-31T02:08:01;101547.78;;;26.88;33.65
68366;BME280;55283;51.466;5.478;2022-07-31T02:10:27;101547.00;;;26.87;34.02
68366;BME280;55283;51.466;5.478;2022-07-31T02:12:54;101545.44;;;26.86;33.87
68366;BME280;55283;51.466;5.478;2022-07-31T02:15:21;101549.81;;;26.87;34.07
68366;BME280;55283;51.466;5.478;2022-07-31T02:17:48;101549.81;;;26.87;33.95
68366;BME280;55283;51.466;5.478;2022-07-31T02:20:19;101536.94;;;26.86;33.75
68366;BME280;55283;51.466;5.478;2022-07-31T02:22:45;101548.28;;;26.86;33.92
68366;BME280;55283;51.466;5.478;2022-07-31T02:25:11;101543.84;;;26.85;33.75
68366;BME280;55283;51.466;5.478;2022-07-31T02:27:38;101542.63;;;26.86;34.00
68366;BME280;55283;51.466;5.478;2022-07-31T02:30:04;101531.59;;;26.88;33.81
68366;BME280;55283;51.466;5.478;2022-07-31T02:32:31;101541.34;;;26.87;33.96
68366;BME280;55283;51.466;5.478;2022-07-31T02:35:01;101539.78;;;26.86;33.89
68366;BME280;55283;51.466;5.478;2022-07-31T02:37:28;101546.22;;;26.86;33.88
68366;BME280;55283;51.466;5.478;2022-07-31T02:39:56;101558.31;;;26.87;34.09
68366;BME280;55283;51.466;5.478;2022-07-31T02:42:23;101554.72;;;26.86;34.08
68366;BME280;55283;51.466;5.478;2022-07-31T02:44:49;101515.22;;;26.64;33.79
68366;BME280;55283;51.466;5.478;2022-07-31T02:47:15;101549.06;;;26.86;34.06
68366;BME280;55283;51.466;5.478;2022-07-31T02:49:41;101546.22;;;26.86;33.82
68366;BME280;55283;51.466;5.478;2022-07-31T02:52:09;101546.22;;;26.86;33.95
68366;BME280;55283;51.466;5.478;2022-07-31T02:54:37;101544.66;;;26.85;33.79
68366;BME280;55283;51.466;5.478;2022-07-31T02:57:05;101536.47;;;26.88;34.11
68366;BME280;55283;51.466;5.478;2022-07-31T02:59:38;101539.47;;;26.84;33.82
68366;BME280;55283;51.466;5.478;2022-07-31T03:02:05;101542.91;;;26.88;33.95
68366;BME280;55283;51.466;5.478;2022-07-31T03:04:33;101535.69;;;26.87;34.02
68366;BME280;55283;51.466;5.478;2022-07-31T03:06:58;101535.38;;;26.85;34.09
68366;BME280;55283;51.466;5.478;2022-07-31T03:09:25;101533.34;;;26.85;34.14
68366;BME280;55283;51.466;5.478;2022-07-31T03:11:50;101526.25;;;26.81;33.87
68366;BME280;55283;51.466;5.478;2022-07-31T03:14:17;101534.28;;;26.82;34.01
68366;BME280;55283;51.466;5.478;2022-07-31T03:16:43;101522.03;;;26.85;34.22
68366;BME280;55283;51.466;5.478;2022-07-31T03:19:11;101527.34;;;26.83;34.09
68366;BME280;55283;51.466;5.478;2022-07-31T03:21:36;101525.81;;;26.82;34.26
68366;BME280;55283;51.466;5.478;2022-07-31T03:24:03;101525.00;;;26.82;34.05
68366;BME280;55283;51.466;5.478;2022-07-31T03:26:29;101514.63;;;26.79;33.98
68366;BME280;55283;51.466;5.478;2022-07-31T03:28:54;101519.81;;;26.80;34.08
68366;BME280;55283;51.466;5.478;2022-07-31T03:31:24;101519.34;;;26.82;34.08
68366;BME280;55283;51.466;5.478;2022-07-31T03:33:49;101519.81;;;26.80;34.28
68366;BME280;55283;51.466;5.478;2022-07-31T03:36:15;101523.44;;;26.81;34.28
68366;BME280;55283;51.466;5.478;2022-07-31T03:38:40;101517.78;;;26.81;34.10
68366;BME280;55283;51.466;5.478;2022-07-31T03:41:05;101519.81;;;26.80;34.09
68366;BME280;55283;51.466;5.478;2022-07-31T03:43:32;101525.47;;;26.80;34.22
68366;BME280;55283;51.466;5.478;2022-07-31T03:45:59;101521.88;;;26.80;34.20
68366;BME280;55283;51.466;5.478;2022-07-31T03:48:27;101517.00;;;26.80;33.96
68366;BME280;55283;51.466;5.478;2022-07-31T03:50:54;101520.28;;;26.79;34.05
68366;BME280;55283;51.466;5.478;2022-07-31T03:53:20;101520.16;;;26.82;34.03
68366;BME280;55283;51.466;5.478;2022-07-31T03:55:46;101511.78;;;26.79;34.15
68366;BME280;55283;51.466;5.478;2022-07-31T03:58:13;101518.22;;;26.79;34.00
68366;BME280;55283;51.466;5.478;2022-07-31T04:00:42;101512.28;;;26.77;33.93
68366;BME280;55283;51.466;5.478;2022-07-31T04:03:10;101522.31;;;26.78;34.06
68366;BME280;55283;51.466;5.478;2022-07-31T04:05:37;101525.47;;;26.80;34.06
68366;BME280;55283;51.466;5.478;2022-07-31T04:08:03;101516.66;;;26.78;33.82
68366;BME280;55283;51.466;5.478;2022-07-31T04:10:28;101519.66;;;26.75;33.94
68366;BME280;55283;51.466;5.478;2022-07-31T04:12:54;101528.47;;;26.77;34.21
68366;BME280;55283;51.466;5.478;2022-07-31T04:15:23;101522.47;;;26.75;34.00
68366;BME280;55283;51.466;5.478;2022-07-31T04:17:51;101527.19;;;26.78;34.00
68366;BME280;55283;51.466;5.478;2022-07-31T04:20:16;101524.03;;;26.76;34.16
68366;BME280;55283;51.466;5.478;2022-07-31T04:22:42;101528.91;;;26.75;34.14
68366;BME280;55283;51.466;5.478;2022-07-31T04:25:08;101530.47;;;26.76;34.05
68366;BME280;55283;51.466;5.478;2022-07-31T04:27:34;101523.88;;;26.70;34.12
68366;BME280;55283;51.466;5.478;2022-07-31T04:30:00;101527.81;;;26.73;34.17
68366;BME280;55283;51.466;5.478;2022-07-31T04:32:26;101528.91;;;26.75;34.28
68366;BME280;55283;51.466;5.478;2022-07-31T04:34:52;101534.56;;;26.75;34.02
68366;BME280;55283;51.466;5.478;2022-07-31T04:37:17;101518.53;;;26.63;34.10
68366;BME280;55283;51.466;5.478;2022-07-31T04:39:43;101532.22;;;26.74;34.10
68366;BME280;55283;51.466;5.478;2022-07-31T04:42:08;101552.81;;;26.74;34.44
68366;BME280;55283;51.466;5.478;2022-07-31T04:44:34;101525.88;;;26.60;34.19
68366;BME280;55283;51.466;5.478;2022-07-31T04:47:05;101539.63;;;26.71;34.63
68366;BME280;55283;51.466;5.478;2022-07-31T04:49:31;101533.47;;;26.73;34.24
68366;BME280;55283;51.466;5.478;2022-07-31T04:51:58;101534.25;;;26.73;34.36
68366;BME280;55283;51.466;5.478;2022-07-31T04:54:24;101526.56;;;26.74;34.47
68366;BME280;55283;51.466;5.478;2022-07-31T04:56:49;101530.19;;;26.74;34.38
68366;BME280;55283;51.466;5.478;2022-07-31T04:59:18;101536.94;;;26.77;34.27
68366;BME280;55283;51.466;5.478;2022-07-31T05:01:47;101534.56;;;26.75;34.50
68366;BME280;55283;51.466;5.478;2022-07-31T05:04:13;101534.25;;;26.73;34.33
68366;BME280;55283;51.466;5.478;2022-07-31T05:06:45;101523.25;;;26.75;34.28
68366;BME280;55283;51.466;5.478;2022-07-31T05:09:15;101526.56;;;26.74;34.46
68366;BME280;55283;51.466;5.478;2022-07-31T05:11:41;101528.13;;;26.75;34.38
68366;BME280;55283;51.466;5.478;2022-07-31T05:14:08;101526.56;;;26.74;34.35
68366;BME280;55283;51.466;5.478;2022-07-31T05:16:34;101524.22;;;26.72;34.68
68366;BME280;55283;51.466;5.478;2022-07-31T05:19:01;101530.63;;;26.73;34.81
68366;BME280;55283;51.466;5.478;2022-07-31T05:21:27;101519.31;;;26.73;34.57
68366;BME280;55283;51.466;5.478;2022-07-31T05:23:55;101522.66;;;26.71;34.55
68366;BME280;55283;51.466;5.478;2022-07-31T05:26:21;101515.72;;;26.72;34.64
68366;BME280;55283;51.466;5.478;2022-07-31T05:28:47;101524.22;;;26.72;34.79
68366;BME280;55283;51.466;5.478;2022-07-31T05:31:14;101510.06;;;26.72;34.72
68366;BME280;55283;51.466;5.478;2022-07-31T05:33:40;101528.59;;;26.73;34.87
68366;BME280;55283;51.466;5.478;2022-07-31T05:36:05;101516.19;;;26.71;34.93
68366;BME280;55283;51.466;5.478;2022-07-31T05:38:31;101513.16;;;26.56;36.14
68366;BME280;55283;51.466;5.478;2022-07-31T05:40:56;101509.84;;;26.48;36.19
68366;BME280;55283;51.466;5.478;2022-07-31T05:43:24;101509.69;;;26.43;36.69
68366;BME280;55283;51.466;5.478;2022-07-31T05:45:49;101515.94;;;26.37;37.28
68366;BME280;55283;51.466;5.478;2022-07-31T05:48:15;101508.72;;;26.36;37.46
68366;BME280;55283;51.466;5.478;2022-07-31T05:50:45;101505.88;;;26.27;37.74
68366;BME280;55283;51.466;5.478;2022-07-31T05:53:11;101512.31;;;26.28;37.54
68366;BME280;55283;51.466;5.478;2022-07-31T05:55:40;101489.19;;;26.11;37.96
68366;BME280;55283;51.466;5.478;2022-07-31T05:58:06;101509.78;;;26.30;37.50
68366;BME280;55283;51.466;5.478;2022-07-31T06:00:31;101522.34;;;26.29;37.76
68366;BME280;55283;51.466;5.478;2022-07-31T06:02:56;101509.50;;;26.28;37.78
68366;BME280;55283;51.466;5.478;2022-07-31T06:05:24;101510.25;;;26.19;37.76
68366;BME280;55283;51.466;5.478;2022-07-31T06:07:49;101518.44;;;26.26;37.88
68366;BME280;55283;51.466;5.478;2022-07-31T06:10:15;101517.50;;;26.29;37.79
68366;BME280;55283;51.466;5.478;2022-07-31T06:12:41;101513.44;;;26.30;37.80
68366;BME280;55283;51.466;5.478;2022-07-31T06:15:09;101514.06;;;26.34;37.78
68366;BME280;55283;51.466;5.478;2022-07-31T06:17:37;101512.78;;;26.35;37.76
68366;BME280;55283;51.466;5.478;2022-07-31T06:20:05;101516.44;;;26.36;37.93
68366;BME280;55283;51.466;5.478;2022-07-31T06:22:31;101520.31;;;26.29;38.19
68366;BME280;55283;51.466;5.478;2022-07-31T06:24:56;101521.75;;;26.34;38.49
68366;BME280;55283;51.466;5.478;2022-07-31T06:27:22;101508.72;;;26.36;38.20
68366;BME280;55283;51.466;5.478;2022-07-31T06:29:47;101505.25;;;26.32;38.21
68366;BME280;55283;51.466;5.478;2022-07-31T06:32:13;101495.19;;;26.22;38.31
68366;BME280;55283;51.466;5.478;2022-07-31T06:34:39;101500.53;;;26.29;37.91
68366;BME280;55283;51.466;5.478;2022-07-31T06:37:05;101505.91;;;26.36;38.34
68366;BME280;55283;51.466;5.478;2022-07-31T06:39:30;101500.25;;;26.36;37.87
68366;BME280;55283;51.466;5.478;2022-07-31T06:41:56;101493.50;;;26.34;38.29
68366;BME280;55283;51.466;5.478;2022-07-31T06:44:22;101501.47;;;26.35;38.04
68366;BME280;55283;51.466;5.478;2022-07-31T06:46:48;101511.84;;;26.38;38.11
68366;BME280;55283;51.466;5.478;2022-07-31T06:49:14;101509.97;;;26.35;38.67
68366;BME280;55283;51.466;5.478;2022-07-31T06:51:40;101508.06;;;26.32;38.63
68366;BME280;55283;51.466;5.478;2022-07-31T06:54:08;101513.63;;;26.45;38.05
68366;BME280;55283;51.466;5.478;2022-07-31T06:56:35;101506.25;;;26.57;37.69
68366;BME280;55283;51.466;5.478;2022-07-31T06:59:02;101486.13;;;26.46;36.66
68366;BME280;55283;51.466;5.478;2022-07-31T07:01:28;101511.78;;;26.70;37.13
68366;BME280;55283;51.466;5.478;2022-07-31T07:03:56;101503.72;;;26.50;38.24
68366;BME280;55283;51.466;5.478;2022-07-31T07:06:22;101503.69;;;26.31;38.98
68366;BME280;55283;51.466;5.478;2022-07-31T07:08:48;101498.47;;;26.21;39.34
68366;BME280;55283;51.466;5.478;2022-07-31T07:11:13;101503.66;;;26.13;39.47
68366;BME280;55283;51.466;5.478;2022-07-31T07:13:39;101496.09;;;26.10;39.35
68366;BME280;55283;51.466;5.478;2022-07-31T07:16:04;101498.09;;;26.00;39.91
68366;BME280;55283;51.466;5.478;2022-07-31T07:18:30;101502.81;;;25.72;40.96
68366;BME280;55283;51.466;5.478;2022-07-31T07:20:55;101515.09;;;25.78;40.91
68366;BME280;55283;51.466;5.478;2022-07-31T07:23:21;101501.00;;;25.34;42.13
68366;BME280;55283;51.466;5.478;2022-07-31T07:25:47;101502.19;;;25.24;42.37
68366;BME280;55283;51.466;5.478;2022-07-31T07:28:13;101505.59;;;24.97;43.50
68366;BME280;55283;51.466;5.478;2022-07-31T07:30:39;101501.72;;;25.03;43.16
68366;BME280;55283;51.466;5.478;2022-07-31T07:33:04;101507.03;;;25.01;43.05
68366;BME280;55283;51.466;5.478;2022-07-31T07:35:30;101502.69;;;25.10;42.85
68366;BME280;55283;51.466;5.478;2022-07-31T07:37:56;101503.09;;;25.21;42.50
68366;BME280;55283;51.466;5.478;2022-07-31T07:40:22;101508.00;;;25.07;43.14
68366;BME280;55283;51.466;5.478;2022-07-31T07:42:48;101507.03;;;25.01;43.25
68366;BME280;55283;51.466;5.478;2022-07-31T07:45:13;101505.59;;;24.97;43.16
68366;BME280;55283;51.466;5.478;2022-07-31T07:47:39;101494.09;;;24.91;43.55
68366;BME280;55283;51.466;5.478;2022-07-31T07:50:06;101499.25;;;25.05;43.13
68366;BME280;55283;51.466;5.478;2022-07-31T07:52:35;101479.16;;;25.03;42.94
68366;BME280;55283;51.466;5.478;2022-07-31T07:55:02;101497.00;;;25.22;42.90
68366;BME280;55283;51.466;5.478;2022-07-31T07:57:27;101494.69;;;25.30;42.65
68366;BME280;55283;51.466;5.478;2022-07-31T07:59:53;101499.84;;;25.22;42.82
68366;BME280;55283;51.466;5.478;2022-07-31T08:02:21;101502.91;;;25.15;43.04
68366;BME280;55283;51.466;5.478;2022-07-31T08:04:47;101496.53;;;25.02;43.64
68366;BME280;55283;51.466;5.478;2022-07-31T08:07:12;101489.38;;;25.10;43.16
68366;BME280;55283;51.466;5.478;2022-07-31T08:09:38;101499.53;;;25.07;43.45
68366;BME280;55283;51.466;5.478;2022-07-31T08:12:04;101493.28;;;25.25;42.82
68366;BME280;55283;51.466;5.478;2022-07-31T08:14:29;101490.06;;;25.36;42.69
68366;BME280;55283;51.466;5.478;2022-07-31T08:16:55;101496.38;;;25.40;42.63
68366;BME280;55283;51.466;5.478;2022-07-31T08:19:20;101489.13;;;25.39;42.87
68366;BME280;55283;51.466;5.478;2022-07-31T08:21:46;101485.44;;;25.29;42.97
68366;BME280;55283;51.466;5.478;2022-07-31T08:24:11;101488.34;;;25.39;42.86
68366;BME280;55283;51.466;5.478;2022-07-31T08:26:37;101493.22;;;25.38;42.87
68366;BME280;55283;51.466;5.478;2022-07-31T08:29:24;101485.78;;;25.32;43.39
68366;BME280;55283;51.466;5.478;2022-07-31T08:31:49;101478.44;;;25.34;43.10
68366;BME280;55283;51.466;5.478;2022-07-31T08:34:19;101494.84;;;25.26;43.30
68366;BME280;55283;51.466;5.478;2022-07-31T08:36:44;101471.53;;;25.13;43.50
68366;BME280;55283;51.466;5.478;2022-07-31T08:39:12;101486.91;;;25.34;43.27
68366;BME280;55283;51.466;5.478;2022-07-31T08:41:38;101489.28;;;25.36;43.33
68366;BME280;55283;51.466;5.478;2022-07-31T08:44:05;101483.50;;;25.17;43.85
68366;BME280;55283;51.466;5.478;2022-07-31T08:46:36;101488.94;;;25.12;43.84
68366;BME280;55283;51.466;5.478;2022-07-31T08:49:03;101492.81;;;25.05;44.08
68366;BME280;55283;51.466;5.478;2022-07-31T08:51:33;101482.72;;;25.17;43.91
68366;BME280;55283;51.466;5.478;2022-07-31T08:54:01;101487.28;;;25.23;43.50
68366;BME280;55283;51.466;5.478;2022-07-31T08:56:34;101484.53;;;25.33;43.35
68366;BME280;55283;51.466;5.478;2022-07-31T08:59:01;101487.28;;;25.45;42.89
68366;BME280;55283;51.466;5.478;2022-07-31T09:01:27;101498.97;;;25.57;42.73
68366;BME280;55283;51.466;5.478;2022-07-31T09:03:53;101495.53;;;25.62;43.08
68366;BME280;55283;51.466;5.478;2022-07-31T09:06:18;101494.66;;;25.43;43.30
68366;BME280;55283;51.466;5.478;2022-07-31T09:08:44;101454.16;;;25.37;43.26
68366;BME280;55283;51.466;5.478;2022-07-31T09:11:13;101495.44;;;25.43;43.65
68366;BME280;55283;51.466;5.478;2022-07-31T09:16:22;101487.44;;;25.20;44.29
68366;BME280;55283;51.466;5.478;2022-07-31T09:18:56;101485.63;;;25.13;44.48
68366;BME280;55283;51.466;5.478;2022-07-31T09:21:21;101473.38;;;25.29;44.00
68366;BME280;55283;51.466;5.478;2022-07-31T09:23:47;101477.25;;;25.44;43.77
68366;BME280;55283;51.466;5.478;2022-07-31T09:26:13;101473.47;;;25.38;43.96
68366;BME280;55283;51.466;5.478;2022-07-31T09:28:44;101469.94;;;25.56;43.42
68366;BME280;55283;51.466;5.478;2022-07-31T09:31:10;101462.75;;;25.55;43.37
68366;BME280;55283;51.466;5.478;2022-07-31T09:33:36;101472.38;;;25.67;43.35
68366;BME280;55283;51.466;5.478;2022-07-31T09:36:04;101478.59;;;25.62;43.62
68366;BME280;55283;51.466;5.478;2022-07-31T09:38:41;101474.81;;;25.56;43.97
68366;BME280;55283;51.466;5.478;2022-07-31T09:41:14;101474.34;;;25.57;43.71
68366;BME280;55283;51.466;5.478;2022-07-31T09:43:40;101483.28;;;25.56;43.79
68366;BME280;55283;51.466;5.478;2022-07-31T09:46:07;101482.03;;;25.57;43.99
68366;BME280;55283;51.466;5.478;2022-07-31T09:48:34;101474.03;;;25.55;44.12
68366;BME280;55283;51.466;5.478;2022-07-31T09:51:05;101472.03;;;25.65;43.75
68366;BME280;55283;51.466;5.478;2022-07-31T09:53:45;101474.03;;;25.55;44.07
68366;BME280;55283;51.466;5.478;2022-07-31T09:56:11;101476.25;;;25.60;44.06
68366;BME280;55283;51.466;5.478;2022-07-31T09:58:39;101471.94;;;25.46;44.29
68366;BME280;55283;51.466;5.478;2022-07-31T10:01:08;101463.78;;;25.48;44.28
68366;BME280;55283;51.466;5.478;2022-07-31T10:03:36;101464.31;;;25.56;44.09
68366;BME280;55283;51.466;5.478;2022-07-31T10:06:03;101466.19;;;25.59;44.16
68366;BME280;55283;51.466;5.478;2022-07-31T10:08:33;101476.31;;;25.47;44.42
68366;BME280;55283;51.466;5.478;2022-07-31T10:11:00;101475.88;;;25.49;44.19
68366;BME280;55283;51.466;5.478;2022-07-31T10:13:30;101477.31;;;25.54;43.86
68366;BME280;55283;51.466;5.478;2022-07-31T10:16:00;101464.25;;;25.47;44.11
68366;BME280;55283;51.466;5.478;2022-07-31T10:18:27;101473.97;;;25.46;44.29
68366;BME280;55283;51.466;5.478;2022-07-31T10:20:58;101455.75;;;25.38;44.26
68366;BME280;55283;51.466;5.478;2022-07-31T10:23:26;101475.22;;;25.45;44.34
68366;BME280;55283;51.466;5.478;2022-07-31T10:25:57;101466.94;;;25.50;44.19
68366;BME280;55283;51.466;5.478;2022-07-31T10:28:26;101462.59;;;25.59;44.01
68366;BME280;55283;51.466;5.478;2022-07-31T10:30:53;101456.53;;;25.38;44.77
68366;BME280;55283;51.466;5.478;2022-07-31T10:33:22;101465.22;;;25.53;43.99
68366;BME280;55283;51.466;5.478;2022-07-31T10:36:15;101457.84;;;25.46;44.20
68366;BME280;55283;51.466;5.478;2022-07-31T10:38:50;101466.97;;;25.60;43.73
68366;BME280;55283;51.466;5.478;2022-07-31T10:41:29;101460.38;;;25.54;43.81
68366;BME280;55283;51.466;5.478;2022-07-31T10:44:01;101450.47;;;25.49;43.53
68366;BME280;55283;51.466;5.478;2022-07-31T10:46:30;101460.19;;;25.48;43.72
68366;BME280;55283;51.466;5.478;2022-07-31T10:48:57;101453.00;;;25.56;43.56
68366;BME280;55283;51.466;5.478;2022-07-31T10:51:22;101457.88;;;25.56;43.56
68366;BME280;55283;51.466;5.478;2022-07-31T10:53:59;101454.91;;;25.59;43.76
68366;BME280;55283;51.466;5.478;2022-07-31T10:56:25;101451.16;;;25.62;43.90
68366;BME280;55283;51.466;5.478;2022-07-31T10:58:54;101448.16;;;25.57;44.27
68366;BME280;55283;51.466;5.478;2022-07-31T11:01:20;101440.16;;;25.55;44.58
68366;BME280;55283;51.466;5.478;2022-07-31T11:03:48;101430.94;;;25.64;43.95
68366;BME280;55283;51.466;5.478;2022-07-31T11:06:17;101430.28;;;25.60;43.65
68366;BME280;55283;51.466;5.478;2022-07-31T11:08:45;101435.56;;;25.48;43.88
68366;BME280;55283;51.466;5.478;2022-07-31T11:11:11;101428.94;;;25.42;43.71
68366;BME280;55283;51.466;5.478;2022-07-31T11:13:48;101429.28;;;25.44;43.91
68366;BME280;55283;51.466;5.478;2022-07-31T11:16:17;101431.66;;;25.46;44.03
68366;BME280;55283;51.466;5.478;2022-07-31T11:18:44;101436.97;;;25.44;43.75
68366;BME280;55283;51.466;5.478;2022-07-31T11:21:29;101439.00;;;25.43;43.81
68366;BME280;55283;51.466;5.478;2022-07-31T11:23:55;101423.00;;;25.40;44.02
68366;BME280;55283;51.466;5.478;2022-07-31T11:26:21;101418.91;;;25.41;44.00
68366;BME280;55283;51.466;5.478;2022-07-31T11:28:46;101420.81;;;25.44;43.99
68366;BME280;55283;51.466;5.478;2022-07-31T11:31:13;101413.16;;;25.54;43.75
68366;BME280;55283;51.466;5.478;2022-07-31T11:33:45;101412.56;;;25.59;43.76
68366;BME280;55283;51.466;5.478;2022-07-31T11:36:15;101415.97;;;25.54;44.22
68366;BME280;55283;51.466;5.478;2022-07-31T11:38:48;101412.06;;;25.51;44.18
68366;BME280;55283;51.466;5.478;2022-07-31T11:41:15;101407.84;;;25.56;43.83
68366;BME280;55283;51.466;5.478;2022-07-31T11:43:48;101402.97;;;25.57;44.02
68366;BME280;55283;51.466;5.478;2022-07-31T11:46:26;101401.75;;;25.58;43.98
68366;BME280;55283;51.466;5.478;2022-07-31T11:48:53;101414.47;;;25.71;43.78
68366;BME280;55283;51.466;5.478;2022-07-31T11:51:19;101414.47;;;25.71;43.35
68366;BME280;55283;51.466;5.478;2022-07-31T11:53:46;101420.56;;;25.61;43.24
68366;BME280;55283;51.466;5.478;2022-07-31T11:56:15;101422.78;;;25.66;43.13
68366;BME280;55283;51.466;5.478;2022-07-31T11:58:48;101406.44;;;25.51;43.58
68366;BME280;55283;51.466;5.478;2022-07-31T12:01:15;101405.69;;;25.60;43.66
68366;BME280;55283;51.466;5.478;2022-07-31T12:03:40;101408.94;;;25.59;43.58
68366;BME280;55283;51.466;5.478;2022-07-31T12:06:07;101406.09;;;25.49;43.82
68366;BME280;55283;51.466;5.478;2022-07-31T12:08:33;101407.06;;;25.56;43.67
68366;BME280;55283;51.466;5.478;2022-07-31T12:11:00;101398.19;;;25.66;43.29
68366;BME280;55283;51.466;5.478;2022-07-31T12:13:26;101400.03;;;25.60;43.35
68366;BME280;55283;51.466;5.478;2022-07-31T12:16:07;101403.28;;;25.49;43.75
68366;BME280;55283;51.466;5.478;2022-07-31T12:18:53;101400.91;;;25.48;43.81
68366;BME280;55283;51.466;5.478;2022-07-31T12:21:31;101401.75;;;25.58;43.81
68366;BME280;55283;51.466;5.478;2022-07-31T12:23:57;101402.38;;;25.62;43.75
68366;BME280;55283;51.466;5.478;2022-07-31T12:26:28;101404.41;;;25.61;43.65
68366;BME280;55283;51.466;5.478;2022-07-31T12:29:05;101402.19;;;25.56;43.83
68366;BME280;55283;51.466;5.478;2022-07-31T12:31:50;101412.22;;;25.57;43.72
68366;BME280;55283;51.466;5.478;2022-07-31T12:37:14;101396.03;;;25.48;44.00
68366;BME280;55283;51.466;5.478;2022-07-31T12:42:34;101417.84;;;25.48;44.01
68366;BME280;55283;51.466;5.478;2022-07-31T12:45:03;101398.25;;;25.54;43.87
68366;BME280;55283;51.466;5.478;2022-07-31T12:47:32;101393.41;;;25.54;43.99
68366;BME280;55283;51.466;5.478;2022-07-31T12:50:04;101394.38;;;25.60;43.83
68366;BME280;55283;51.466;5.478;2022-07-31T12:52:30;101373.53;;;25.67;44.00
68366;BME280;55283;51.466;5.478;2022-07-31T12:55:00;101378.84;;;25.65;43.96
68366;BME280;55283;51.466;5.478;2022-07-31T12:57:27;101367.56;;;25.65;44.02
68366;BME280;55283;51.466;5.478;2022-07-31T12:59:52;101381.72;;;25.74;43.85
68366;BME280;55283;51.466;5.478;2022-07-31T13:02:20;101378.88;;;25.74;43.63
68366;BME280;55283;51.466;5.478;2022-07-31T13:04:46;101374.50;;;25.73;43.67
68366;BME280;55283;51.466;5.478;2022-07-31T13:07:11;101364.50;;;25.81;43.65